Time;durP1;ratioP1;P1;durP2;ratioP2;P2;SDS_P1;SDS_P2;PMS_P1;PMS_P2;Temp;Humidity;BMP_temperature;BMP_pressure;BME280_temperature;BME280_humidity;BME280_pressure;Samples;Min_cycle;Max_cycle;Signal;HPM_P1;HPM_P2
2021/12/06 00:01:10;;;;;;;20.00;13.05;;;2.10;99.90;;;;;;4991260;28;20034;-62
2021/12/06 00:03:47;;;;;;;21.73;13.70;;;1.90;99.90;;;;;;4990389;28;20030;-61
2021/12/06 00:06:13;;;;;;;20.20;14.18;;;;;;;;;;5014997;23;20046;-68
2021/12/06 00:08:39;;;;;;;22.73;14.27;;;2.50;99.90;;;;;;5016177;28;20133;-68
2021/12/06 00:11:09;;;;;;;19.65;13.07;;;2.50;99.90;;;;;;5015106;28;20073;-69
2021/12/06 00:13:40;;;;;;;18.20;13.77;;;2.50;99.90;;;;;;5014900;28;20052;-68
2021/12/06 00:16:11;;;;;;;22.63;14.90;;;2.00;99.90;;;;;;5011769;28;20536;-70
2021/12/06 00:18:37;;;;;;;22.45;14.35;;;2.20;99.90;;;;;;4995267;28;20034;-68
2021/12/06 00:21:03;;;;;;;24.70;13.75;;;2.40;99.90;;;;;;4995335;28;20049;-68
2021/12/06 00:23:29;;;;;;;21.60;13.70;;;2.30;99.90;;;;;;4993896;28;20026;-68
2021/12/06 00:25:56;;;;;;;22.48;13.57;;;;;;;;;;4994766;28;20048;-69
2021/12/06 00:28:22;;;;;;;23.67;14.32;;;2.60;99.90;;;;;;4994478;28;20097;-68
2021/12/06 00:30:48;;;;;;;20.33;13.52;;;1.90;99.90;;;;;;4990351;28;20057;-68
2021/12/06 00:33:14;;;;;;;26.38;15.43;;;1.90;99.90;;;;;;4975635;28;20102;-66
2021/12/06 00:35:40;;;;;;;22.45;14.00;;;2.10;99.90;;;;;;4978846;28;20014;-68
2021/12/06 00:38:06;;;;;;;19.40;13.77;;;;;;;;;;4994234;28;20030;-70
2021/12/06 00:40:35;;;;;;;19.02;12.93;;;2.40;99.90;;;;;;4994737;28;20030;-68
2021/12/06 00:43:02;;;;;;;21.48;12.38;;;2.60;99.90;;;;;;4984364;28;20019;-69
2021/12/06 00:45:28;;;;;;;23.80;13.57;;;2.70;99.90;;;;;;4974209;28;20031;-68
2021/12/06 00:47:54;;;;;;;17.30;12.32;;;2.50;99.90;;;;;;4975008;28;20107;-68
2021/12/06 00:50:22;;;;;;;20.42;13.43;;;2.60;99.90;;;;;;4985502;28;20439;-68
2021/12/06 00:52:49;;;;;;;25.15;15.18;;;2.00;99.90;;;;;;4994679;28;20094;-68
2021/12/06 00:55:16;;;;;;;22.40;14.13;;;;;;;;;;4994048;28;20019;-70
2021/12/06 00:57:42;;;;;;;22.50;13.60;;;2.90;99.90;;;;;;4979096;28;20138;-71
2021/12/06 01:00:13;;;;;;;23.02;12.55;;;2.30;99.90;;;;;;4977056;28;20023;-70
2021/12/06 01:02:39;;;;;;;23.63;13.23;;;1.80;99.90;;;;;;4979060;28;20015;-69
2021/12/06 01:05:05;;;;;;;18.65;12.20;;;1.70;99.90;;;;;;4993570;28;20084;-69
2021/12/06 01:07:31;;;;;;;17.40;12.98;;;1.50;99.90;;;;;;4991802;28;20428;-68
2021/12/06 01:09:57;;;;;;;22.10;13.23;;;2.00;99.90;;;;;;4982630;28;20034;-67
2021/12/06 01:12:23;;;;;;;16.45;11.93;;;2.00;99.90;;;;;;4974500;28;20038;-68
2021/12/06 01:14:48;;;;;;;20.40;13.95;;;2.40;99.90;;;;;;4973406;28;20073;-67
2021/12/06 01:17:14;;;;;;;19.33;12.23;;;1.90;99.90;;;;;;4993850;28;20030;-68
2021/12/06 01:19:41;;;;;;;20.65;13.07;;;1.40;99.90;;;;;;4993315;28;20465;-69
2021/12/06 01:22:42;;;;;;;19.73;12.68;;;2.20;99.90;;;;;;4981327;28;20038;-69
2021/12/06 01:25:04;;;;;;;22.02;13.35;;;2.00;99.90;;;;;;4983671;28;20912;-69
2021/12/06 01:40:27;;;;;;;20.95;12.63;;;;;;;;;;4991278;28;20034;-70
2021/12/06 01:42:53;;;;;;;20.13;13.63;;;2.20;99.90;;;;;;4994872;28;20056;-69
2021/12/06 01:45:20;;;;;;;23.10;12.93;;;2.10;99.90;;;;;;4993294;28;20481;-66
2021/12/06 01:47:46;;;;;;;21.33;12.98;;;2.40;99.90;;;;;;4974752;28;20077;-67
2021/12/06 01:50:30;;;;;;;18.55;12.25;;;2.20;99.90;;;;;;4974307;28;20027;-69
2021/12/06 01:52:59;;;;;;;19.50;13.15;;;2.20;99.90;;;;;;4981837;28;20041;-68
2021/12/06 01:55:31;;;;;;;21.90;12.88;;;1.50;99.90;;;;;;4992898;28;20019;-70
2021/12/06 01:57:58;;;;;;;16.58;11.52;;;2.40;99.90;;;;;;4993128;28;20493;-69
2021/12/06 02:00:31;;;;;;;23.48;12.35;;;;;;;;;;4992790;28;20045;-67
2021/12/06 02:02:57;;;;;;;24.02;14.52;;;2.40;99.90;;;;;;4993302;28;20030;-68
2021/12/06 02:05:23;;;;;;;19.17;13.70;;;2.30;99.90;;;;;;4977745;28;20403;-68
2021/12/06 02:07:50;;;;;;;17.95;12.10;;;2.10;99.90;;;;;;4984454;28;20045;-67
2021/12/06 02:10:16;;;;;;;20.77;13.63;;;2.50;99.90;;;;;;4990179;28;20029;-67
2021/12/06 02:12:44;;;;;;;19.85;12.95;;;1.90;99.90;;;;;;4973486;28;20019;-67
2021/12/06 02:15:28;;;;;;;18.27;13.05;;;2.00;99.90;;;;;;4973093;28;20374;-68
2021/12/06 02:18:03;;;;;;;16.75;12.30;;;2.30;99.90;;;;;;4986324;28;20030;-67
2021/12/06 02:20:30;;;;;;;21.02;13.07;;;2.40;99.90;;;;;;4993176;28;20030;-68
2021/12/06 02:22:57;;;;;;;19.92;12.35;;;2.40;99.90;;;;;;4991545;28;20452;-67
2021/12/06 02:25:23;;;;;;;19.20;12.65;;;2.20;99.90;;;;;;4992250;28;20049;-68
2021/12/06 02:27:52;;;;;;;22.27;12.38;;;2.20;99.90;;;;;;4992741;28;20048;-68
2021/12/06 02:30:19;;;;;;;18.33;12.25;;;2.10;99.90;;;;;;4991041;28;20026;-68
2021/12/06 02:32:45;;;;;;;16.27;11.40;;;1.90;99.90;;;;;;4992251;28;20041;-67
2021/12/06 02:35:16;;;;;;;18.75;11.98;;;2.10;99.90;;;;;;4988527;28;20034;-67
2021/12/06 02:37:42;;;;;;;15.82;11.50;;;1.90;99.90;;;;;;4983088;28;20089;-67
2021/12/06 02:40:19;;;;;;;16.80;11.80;;;2.30;99.90;;;;;;4992711;28;20489;-67
2021/12/06 02:42:46;;;;;;;18.05;12.23;;;2.30;99.90;;;;;;5007324;28;20034;-66
2021/12/06 02:45:16;;;;;;;16.33;11.73;;;2.20;99.90;;;;;;4992145;28;20149;-67
2021/12/06 02:47:42;;;;;;;15.90;10.98;;;2.10;99.90;;;;;;4992195;28;20113;-67
2021/12/06 02:50:10;;;;;;;16.90;11.65;;;2.20;99.90;;;;;;4992454;28;20034;-68
2021/12/06 02:52:37;;;;;;;18.08;11.73;;;2.20;99.90;;;;;;4992386;28;20031;-67
2021/12/06 02:55:20;;;;;;;16.02;11.15;;;2.10;99.90;;;;;;4990974;28;20081;-67
2021/12/06 02:57:53;;;;;;;18.13;10.93;;;;;;;;;;4993994;28;20027;-70
2021/12/06 03:00:19;;;;;;;16.95;11.52;;;2.20;99.90;;;;;;4996042;28;20026;-69
2021/12/06 03:02:45;;;;;;;19.83;12.45;;;2.00;99.90;;;;;;4997591;28;20030;-67
2021/12/06 03:05:11;;;;;;;15.07;11.82;;;2.10;99.90;;;;;;5002058;28;20033;-68
2021/12/06 03:07:38;;;;;;;18.73;11.80;;;;;;;;;;5007087;28;20065;-69
2021/12/06 03:10:07;;;;;;;22.23;11.82;;;2.60;99.90;;;;;;5009400;28;20401;-68
2021/12/06 03:12:33;;;;;;;14.38;10.85;;;;;;;;;;5008940;28;20074;-69
2021/12/06 03:15:00;;;;;;;20.23;10.27;;;2.10;99.90;;;;;;5009150;28;20086;-68
2021/12/06 03:17:28;;;;;;;17.20;10.93;;;1.80;99.90;;;;;;5007882;28;20027;-69
2021/12/06 03:19:55;;;;;;;15.43;10.73;;;;;;;;;;5004547;28;20046;-68
2021/12/06 03:22:21;;;;;;;18.40;11.60;;;;;;;;;;4992361;28;20022;-70
2021/12/06 03:24:47;;;;;;;16.83;11.35;;;2.20;99.90;;;;;;4991002;28;20096;-70
2021/12/06 03:27:14;;;;;;;19.10;11.43;;;3.80;99.90;;;;;;4992143;28;20049;-69
2021/12/06 03:29:42;;;;;;;18.25;11.63;;;1.60;99.90;;;;;;4991974;28;20022;-69
2021/12/06 03:32:08;;;;;;;14.15;11.15;;;1.30;99.90;;;;;;4991560;28;20037;-68
2021/12/06 03:34:34;;;;;;;14.65;11.07;;;1.60;99.90;;;;;;4991506;28;20022;-69
2021/12/06 03:37:01;;;;;;;20.02;11.85;;;;;;;;;;4989863;28;20504;-69
2021/12/06 03:39:30;;;;;;;14.45;10.52;;;;;;;;;;4977970;28;20165;-69
2021/12/06 03:42:00;;;;;;;14.82;10.65;;;1.50;99.90;;;;;;4991355;28;20497;-66
2021/12/06 03:44:27;;;;;;;15.82;11.07;;;;;;;;;;4990584;28;20119;-69
2021/12/06 03:46:57;;;;;;;18.33;11.80;;;2.00;99.90;;;;;;4992010;28;20066;-68
2021/12/06 03:49:23;;;;;;;18.98;12.38;;;2.00;99.90;;;;;;4991651;28;20030;-67
2021/12/06 03:51:49;;;;;;;18.75;11.77;;;2.20;99.90;;;;;;4986355;28;20041;-67
2021/12/06 03:54:19;;;;;;;16.67;11.63;;;2.70;99.90;;;;;;4972259;28;20105;-71
2021/12/06 03:56:45;;;;;;;19.23;12.05;;;2.00;99.90;;;;;;4981371;28;20015;-67
2021/12/06 03:59:11;;;;;;;16.27;11.15;;;2.10;99.90;;;;;;4991595;28;20034;-67
2021/12/06 04:01:37;;;;;;;19.95;11.27;;;2.50;99.90;;;;;;4991644;28;20473;-68
2021/12/06 04:04:05;;;;;;;17.85;11.45;;;2.50;99.90;;;;;;4972219;28;20027;-67
2021/12/06 04:06:32;;;;;;;17.40;10.95;;;2.20;99.90;;;;;;4972387;28;20035;-69
2021/12/06 04:08:58;;;;;;;16.15;12.10;;;;;;;;;;4984117;28;20453;-68
2021/12/06 04:11:24;;;;;;;14.75;10.65;;;1.90;99.90;;;;;;4971948;28;20100;-68
2021/12/06 04:13:50;;;;;;;17.17;11.65;;;2.00;99.90;;;;;;4971907;28;20113;-69
2021/12/06 04:16:17;;;;;;;15.90;11.82;;;2.70;99.90;;;;;;4971420;28;20032;-68
2021/12/06 04:18:44;;;;;;;14.80;11.07;;;2.00;99.90;;;;;;4972189;28;20033;-68
2021/12/06 04:21:10;;;;;;;18.70;11.77;;;2.30;99.90;;;;;;4971987;28;20393;-68
2021/12/06 04:23:36;;;;;;;18.40;12.25;;;2.60;99.90;;;;;;4971788;28;20038;-68
2021/12/06 04:26:03;;;;;;;21.40;10.75;;;2.20;99.90;;;;;;4971143;28;20038;-69
2021/12/06 04:28:31;;;;;;;18.90;12.52;;;2.10;99.90;;;;;;4972073;28;20046;-68
2021/12/06 04:30:57;;;;;;;16.80;11.30;;;2.80;99.90;;;;;;4972125;28;20035;-69
2021/12/06 04:33:23;;;;;;;17.20;11.15;;;2.00;99.90;;;;;;4985902;28;20385;-68
2021/12/06 04:35:49;;;;;;;20.33;11.15;;;2.70;99.90;;;;;;4992658;28;20026;-69
2021/12/06 04:38:15;;;;;;;16.75;11.05;;;1.90;99.90;;;;;;4991171;28;20023;-68
2021/12/06 04:40:41;;;;;;;16.35;11.32;;;;;;;;;;4974596;28;20037;-69
2021/12/06 04:43:08;;;;;;;18.13;11.88;;;2.20;99.90;;;;;;4986522;28;20034;-67
2021/12/06 04:45:35;;;;;;;15.25;11.35;;;2.40;99.90;;;;;;5003700;28;20186;-68
2021/12/06 04:48:00;;;;;;;15.07;10.60;;;2.80;99.90;;;;;;4998095;28;20033;-68
2021/12/06 04:50:31;;;;;;;15.75;10.30;;;2.20;99.90;;;;;;4992141;28;20031;-66
2021/12/06 04:53:03;;;;;;;14.35;10.43;;;2.30;99.90;;;;;;4991383;28;20050;-68
2021/12/06 04:55:44;;;;;;;16.75;10.95;;;2.80;99.90;;;;;;4991723;28;20080;-68
2021/12/06 04:58:14;;;;;;;12.07;9.52;;;2.70;99.90;;;;;;4993279;28;20473;-69
2021/12/06 05:00:48;;;;;;;16.35;10.23;;;2.50;99.90;;;;;;5011908;28;20685;-70
2021/12/06 05:03:15;;;;;;;16.55;10.95;;;2.60;99.90;;;;;;5002244;28;20505;-68
2021/12/06 05:05:46;;;;;;;18.15;11.43;;;2.70;99.90;;;;;;4974737;28;20031;-70
2021/12/06 05:08:15;;;;;;;13.90;9.75;;;;;;;;;;4988816;28;20041;-68
2021/12/06 05:10:41;;;;;;;15.07;10.75;;;2.90;99.90;;;;;;4993296;28;20113;-66
2021/12/06 05:13:07;;;;;;;15.68;10.02;;;2.30;99.90;;;;;;4994149;28;20049;-70
2021/12/06 05:15:33;;;;;;;13.20;10.00;;;;;;;;;;4993350;28;20488;-70
2021/12/06 05:17:59;;;;;;;17.10;10.23;;;2.30;99.90;;;;;;4981817;28;20034;-68
2021/12/06 05:20:27;;;;;;;12.50;10.05;;;;;;;;;;4977816;28;20030;-73
2021/12/06 05:22:54;;;;;;;12.90;9.88;;;3.60;99.90;;;;;;4986590;28;20033;-72
2021/12/06 05:25:24;;;;;;;14.57;9.32;;;3.00;99.90;;;;;;4991320;28;20037;-72
2021/12/06 05:27:51;;;;;;;13.65;9.55;;;2.60;99.90;;;;;;4991657;28;20019;-73
2021/12/06 05:30:21;;;;;;;13.18;9.35;;;2.60;99.90;;;;;;4989802;28;20113;-73
2021/12/06 05:32:48;;;;;;;11.10;8.75;;;2.90;99.90;;;;;;4974155;28;20027;-70
2021/12/06 05:35:14;;;;;;;13.98;9.18;;;2.40;99.90;;;;;;4973557;28;20019;-70
2021/12/06 05:37:45;;;;;;;11.10;9.00;;;2.90;99.90;;;;;;4983805;28;20030;-70
2021/12/06 05:40:15;;;;;;;15.60;9.20;;;2.50;99.90;;;;;;5005081;28;20032;-70
2021/12/06 05:42:41;;;;;;;10.70;8.45;;;;;;;;;;5010256;28;20021;-70
2021/12/06 05:45:07;;;;;;;12.93;8.60;;;2.70;99.90;;;;;;4973334;28;20074;-70
2021/12/06 05:47:33;;;;;;;12.93;8.23;;;3.30;99.90;;;;;;4974001;28;20026;-70
2021/12/06 05:49:59;;;;;;;9.80;7.72;;;;;;;;;;4983108;28;20435;-70
2021/12/06 05:52:25;;;;;;;14.05;9.50;;;2.60;99.90;;;;;;4992541;28;20033;-70
2021/12/06 05:54:50;;;;;;;13.15;9.73;;;2.70;99.90;;;;;;4992442;28;20030;-71
2021/12/06 05:57:17;;;;;;;13.00;9.57;;;2.90;99.90;;;;;;4974909;28;20034;-70
2021/12/06 05:59:43;;;;;;;11.90;9.15;;;2.70;99.90;;;;;;4973913;28;20061;-70
2021/12/06 06:02:10;;;;;;;15.45;9.75;;;2.90;99.90;;;;;;4977930;28;20045;-70
2021/12/06 06:04:37;;;;;;;14.07;10.15;;;2.60;99.90;;;;;;4992363;28;20034;-70
2021/12/06 06:07:04;;;;;;;15.82;9.77;;;2.40;99.90;;;;;;4993337;28;20049;-70
2021/12/06 06:09:29;;;;;;;12.52;8.80;;;2.80;99.90;;;;;;5032521;22;20428;-68
2021/12/06 06:11:55;;;;;;;14.00;9.95;;;3.00;99.90;;;;;;4992601;28;20038;-68
2021/12/06 06:14:21;;;;;;;13.60;9.55;;;2.60;99.90;;;;;;4989656;28;20022;-68
2021/12/06 06:16:47;;;;;;;13.48;9.55;;;2.40;99.90;;;;;;4995481;28;20183;-68
2021/12/06 06:19:15;;;;;;;12.65;9.30;;;2.60;99.90;;;;;;4992744;28;20033;-68
2021/12/06 06:21:41;;;;;;;11.10;9.20;;;2.20;99.90;;;;;;4992000;28;20023;-68
2021/12/06 06:24:07;;;;;;;10.88;8.95;;;2.90;99.90;;;;;;4992392;28;20411;-69
2021/12/06 06:26:33;;;;;;;12.50;8.68;;;2.80;99.90;;;;;;4991835;28;20030;-70
2021/12/06 06:28:59;;;;;;;13.52;9.00;;;2.60;99.90;;;;;;4987958;28;20499;-69
2021/12/06 06:31:27;;;;;;;15.88;9.45;;;3.30;99.90;;;;;;4992344;28;20030;-70
2021/12/06 06:33:52;;;;;;;11.73;9.07;;;2.90;99.90;;;;;;4991383;28;20065;-70
2021/12/06 06:36:18;;;;;;;13.82;10.02;;;2.80;99.90;;;;;;4991636;28;20058;-70
2021/12/06 06:38:44;;;;;;;11.80;9.15;;;;;;;;;;4992223;28;20035;-70
2021/12/06 06:41:10;;;;;;;13.73;9.88;;;3.00;99.90;;;;;;4987742;28;20034;-70
2021/12/06 06:43:36;;;;;;;11.73;9.15;;;2.60;99.90;;;;;;4991787;28;20026;-70
2021/12/06 06:46:05;;;;;;;14.27;10.00;;;2.80;99.90;;;;;;4990523;28;20077;-71
2021/12/06 06:48:32;;;;;;;16.88;10.55;;;2.80;99.90;;;;;;4991080;28;20057;-70
2021/12/06 06:50:58;;;;;;;17.15;9.85;;;3.70;99.90;;;;;;4992001;28;20066;-70
2021/12/06 06:53:24;;;;;;;15.30;9.75;;;3.20;99.90;;;;;;4991240;28;20068;-69
2021/12/06 06:55:49;;;;;;;14.75;9.80;;;3.90;99.90;;;;;;4991191;28;20504;-70
2021/12/06 06:58:15;;;;;;;13.98;11.20;;;3.40;99.90;;;;;;4991743;28;20061;-69
2021/12/06 07:00:41;;;;;;;12.40;9.73;;;2.70;99.90;;;;;;4991514;28;20518;-69
2021/12/06 07:03:08;;;;;;;13.32;10.68;;;3.10;99.90;;;;;;4991823;28;20026;-69
2021/12/06 07:05:35;;;;;;;14.40;10.73;;;3.00;99.90;;;;;;4991206;28;20503;-69
2021/12/06 07:08:01;;;;;;;13.88;10.38;;;3.10;99.90;;;;;;4988201;28;20037;-69
2021/12/06 07:10:27;;;;;;;11.73;10.23;;;2.50;99.90;;;;;;4990967;28;20038;-69
2021/12/06 07:12:54;;;;;;;13.70;10.30;;;2.70;99.90;;;;;;4990626;28;20080;-69
2021/12/06 07:15:26;;;;;;;17.27;10.50;;;2.90;99.90;;;;;;4991355;28;20038;-68
2021/12/06 07:17:52;;;;;;;17.23;9.70;;;2.60;99.90;;;;;;5011063;28;20491;-68
2021/12/06 07:20:19;;;;;;;18.52;9.50;;;3.50;99.90;;;;;;4992434;28;20026;-70
2021/12/06 07:22:47;;;;;;;14.73;9.38;;;2.80;99.90;;;;;;4991356;28;20416;-69
2021/12/06 07:25:15;;;;;;;12.80;9.35;;;3.00;99.90;;;;;;4989328;28;20050;-72
2021/12/06 07:27:41;;;;;;;15.27;9.20;;;3.40;99.90;;;;;;4991606;28;20031;-71
2021/12/06 07:30:09;;;;;;;12.20;9.13;;;3.00;99.90;;;;;;4991549;28;20026;-67
2021/12/06 07:32:35;;;;;;;14.15;9.48;;;2.50;99.90;;;;;;4987440;28;20056;-67
2021/12/06 07:35:02;;;;;;;12.68;9.15;;;2.30;99.90;;;;;;4990373;28;20489;-68
2021/12/06 07:37:28;;;;;;;11.55;9.07;;;2.70;99.90;;;;;;4990998;28;20110;-68
2021/12/06 07:39:54;;;;;;;14.10;8.98;;;3.30;99.90;;;;;;4989991;28;20097;-67
2021/12/06 07:42:19;;;;;;;12.18;8.77;;;3.90;99.90;;;;;;4991327;28;20077;-67
2021/12/06 07:44:45;;;;;;;13.40;10.27;;;2.20;99.90;;;;;;4990508;28;20106;-67
2021/12/06 07:47:12;;;;;;;13.95;9.25;;;2.10;99.90;;;;;;4988464;28;20443;-67
2021/12/06 07:49:39;;;;;;;15.30;9.93;;;3.10;99.90;;;;;;4971917;28;20035;-67
2021/12/06 07:52:05;;;;;;;12.80;9.95;;;3.00;99.90;;;;;;4976455;28;20045;-67
2021/12/06 07:54:32;;;;;;;14.05;9.15;;;3.30;99.90;;;;;;4990222;28;20473;-67
2021/12/06 07:56:57;;;;;;;13.00;9.50;;;3.60;99.90;;;;;;4980205;28;20034;-67
2021/12/06 07:59:23;;;;;;;13.70;9.80;;;2.80;99.90;;;;;;4977767;28;20030;-68
2021/12/06 08:01:49;;;;;;;13.60;9.10;;;3.00;99.90;;;;;;4991307;28;20474;-67
2021/12/06 08:04:15;;;;;;;14.50;10.00;;;2.40;99.90;;;;;;4990896;28;20031;-69
2021/12/06 08:06:41;;;;;;;15.32;9.75;;;3.00;99.90;;;;;;4989702;28;20042;-61
2021/12/06 08:09:07;;;;;;;14.73;9.57;;;2.60;99.90;;;;;;4990575;28;20476;-62
2021/12/06 08:11:33;;;;;;;13.15;9.55;;;2.70;99.90;;;;;;4987231;28;20035;-61
2021/12/06 08:13:59;;;;;;;18.15;9.60;;;3.20;99.90;;;;;;4990586;28;20038;-61
2021/12/06 08:16:32;;;;;;;11.00;8.48;;;3.30;99.90;;;;;;4990880;28;20065;-61
2021/12/06 08:18:59;;;;;;;13.30;9.25;;;2.30;99.90;;;;;;4990363;28;20136;-62
2021/12/06 08:21:26;;;;;;;10.75;8.45;;;3.10;99.90;;;;;;4990873;28;20037;-62
2021/12/06 08:23:54;;;;;;;12.80;8.25;;;3.10;99.90;;;;;;4990220;28;20023;-62
2021/12/06 08:26:21;;;;;;;13.73;8.38;;;3.60;99.90;;;;;;4989899;28;20026;-62
2021/12/06 08:28:48;;;;;;;13.77;8.88;;;3.10;99.90;;;;;;4990622;28;20034;-62
2021/12/06 08:31:16;;;;;;;16.50;9.85;;;3.50;99.90;;;;;;4990219;28;20098;-62
2021/12/06 08:33:42;;;;;;;15.85;10.10;;;2.60;99.90;;;;;;4994640;28;20022;-64
2021/12/06 08:36:09;;;;;;;16.00;10.48;;;3.50;99.90;;;;;;4993419;28;20062;-62
2021/12/06 08:38:36;;;;;;;17.40;10.68;;;3.40;99.90;;;;;;4995110;28;20097;-62
2021/12/06 08:41:06;;;;;;;23.35;15.23;;;3.10;99.90;;;;;;4994591;28;20073;-61
2021/12/06 08:43:33;;;;;;;18.75;11.73;;;3.40;99.90;;;;;;4993711;28;20097;-61
2021/12/06 08:46:02;;;;;;;16.45;11.40;;;3.40;99.90;;;;;;4994399;28;20034;-62
2021/12/06 08:48:32;;;;;;;21.65;11.40;;;3.90;99.90;;;;;;4994142;28;20022;-62
2021/12/06 08:51:01;;;;;;;15.85;10.73;;;3.30;99.90;;;;;;4994149;28;20125;-62
2021/12/06 08:53:27;;;;;;;16.83;10.85;;;3.30;99.90;;;;;;4994447;28;20511;-62
2021/12/06 08:55:53;;;;;;;15.07;9.82;;;3.20;99.90;;;;;;4989512;28;20101;-62
2021/12/06 08:58:20;;;;;;;20.88;15.32;;;3.30;99.90;;;;;;4994486;28;20093;-62
2021/12/06 09:00:46;;;;;;;13.43;9.20;;;3.30;99.90;;;;;;4989308;28;20398;-64
2021/12/06 09:03:12;;;;;;;13.52;9.23;;;;;;;;;;4993365;28;20026;-63
2021/12/06 09:05:42;;;;;;;14.20;9.30;;;3.20;99.90;;;;;;4993976;28;20046;-62
2021/12/06 09:08:09;;;;;;;13.30;9.70;;;3.50;99.90;;;;;;4993683;28;20026;-61
2021/12/06 09:10:36;;;;;;;11.60;8.55;;;;;;;;;;4993855;28;20108;-61
2021/12/06 09:13:02;;;;;;;13.52;9.93;;;3.00;99.90;;;;;;4993566;28;20018;-65
2021/12/06 09:15:28;;;;;;;13.68;9.38;;;4.00;99.90;;;;;;4993823;28;20030;-61
2021/12/06 09:17:55;;;;;;;13.55;9.05;;;3.60;99.90;;;;;;4994669;28;20026;-61
2021/12/06 09:20:24;;;;;;;11.38;8.82;;;3.70;99.90;;;;;;4975574;28;20508;-62
2021/12/06 09:22:50;;;;;;;12.57;8.90;;;3.60;99.90;;;;;;4974565;28;20378;-62
2021/12/06 09:25:17;;;;;;;11.93;9.10;;;2.90;99.90;;;;;;4982401;28;20033;-62
2021/12/06 09:27:44;;;;;;;12.40;9.50;;;3.30;99.90;;;;;;4993917;28;20037;-61
2021/12/06 09:30:13;;;;;;;13.00;9.77;;;3.20;99.90;;;;;;4993106;28;20124;-62
2021/12/06 09:32:40;;;;;;;18.85;10.57;;;3.60;99.90;;;;;;4992520;28;20030;-61
2021/12/06 09:35:09;;;;;;;13.00;9.73;;;3.80;99.90;;;;;;4993572;28;20081;-59
2021/12/06 09:37:37;;;;;;;12.32;9.45;;;3.30;99.90;;;;;;4993716;28;20436;-58
2021/12/06 09:40:04;;;;;;;13.52;9.60;;;3.70;99.90;;;;;;4993052;28;20022;-60
2021/12/06 09:42:33;;;;;;;13.27;10.65;;;3.90;99.90;;;;;;4993033;28;20436;-61
2021/12/06 09:44:59;;;;;;;15.23;10.25;;;4.60;99.90;;;;;;4989622;28;20038;-62
2021/12/06 09:47:27;;;;;;;12.57;9.63;;;3.90;99.90;;;;;;4995704;28;20057;-61
2021/12/06 09:49:54;;;;;;;13.20;10.05;;;4.10;99.90;;;;;;5001509;28;20083;-61
2021/12/06 09:52:21;;;;;;;16.23;9.93;;;4.40;99.90;;;;;;5001310;28;20027;-60
2021/12/06 09:54:47;;;;;;;13.70;10.13;;;3.60;99.90;;;;;;4998556;28;20092;-62
2021/12/06 09:57:13;;;;;;;17.15;11.40;;;3.60;99.90;;;;;;5000172;28;20034;-61
2021/12/06 09:59:41;;;;;;;14.75;10.70;;;4.30;99.90;;;;;;5003680;28;20109;-60
2021/12/06 10:02:11;;;;;;;20.67;11.48;;;4.10;99.90;;;;;;5001147;28;20022;-61
2021/12/06 10:04:41;;;;;;;18.25;13.05;;;3.70;99.90;;;;;;4999439;28;20441;-61
2021/12/06 10:07:09;;;;;;;15.07;10.43;;;4.10;99.90;;;;;;4997706;28;20054;-61
2021/12/06 10:09:36;;;;;;;21.42;14.38;;;4.70;99.90;;;;;;4996662;28;20038;-63
2021/12/06 10:12:02;;;;;;;20.10;14.00;;;4.50;99.90;;;;;;4997516;28;20085;-61
2021/12/06 10:14:28;;;;;;;22.25;10.95;;;4.70;99.90;;;;;;4995066;28;20050;-60
2021/12/06 10:16:54;;;;;;;19.25;10.77;;;4.70;99.90;;;;;;4994548;28;20388;-59
2021/12/06 10:19:21;;;;;;;19.30;11.55;;;4.40;99.90;;;;;;4993672;28;20027;-58
2021/12/06 10:21:47;;;;;;;15.45;11.80;;;4.40;99.90;;;;;;4994665;28;20038;-60
2021/12/06 10:24:17;;;;;;;15.32;10.73;;;4.10;99.90;;;;;;4994594;28;20116;-61
2021/12/06 10:26:43;;;;;;;20.25;11.15;;;4.70;99.90;;;;;;4994395;28;20041;-60
2021/12/06 10:29:20;;;;;;;16.70;11.27;;;4.20;99.90;;;;;;4995071;28;20053;-60
2021/12/06 10:31:49;;;;;;;16.38;10.32;;;3.90;99.90;;;;;;4996595;28;20037;-60
2021/12/06 10:34:25;;;;;;;14.85;10.68;;;4.40;99.90;;;;;;5000461;28;20027;-62
2021/12/06 10:36:53;;;;;;;14.35;9.60;;;4.70;99.90;;;;;;4998971;28;20164;-63
2021/12/06 10:39:19;;;;;;;14.55;10.18;;;4.30;99.90;;;;;;5000597;28;20053;-62
2021/12/06 10:41:49;;;;;;;18.15;10.18;;;3.80;99.90;;;;;;4996987;28;20049;-60
2021/12/06 10:44:15;;;;;;;16.27;9.52;;;4.40;99.90;;;;;;4990558;28;20065;-62
2021/12/06 10:46:50;;;;;;;13.35;9.05;;;4.30;99.90;;;;;;4994271;28;20030;-61
2021/12/06 10:49:19;;;;;;;15.20;9.30;;;4.70;99.90;;;;;;4992964;28;20489;-62
2021/12/06 10:51:45;;;;;;;11.63;7.72;;;;;;;;;;4993432;28;20477;-62
2021/12/06 10:54:20;;;;;;;14.35;8.40;;;4.70;99.90;;;;;;4994353;28;20022;-60
2021/12/06 10:56:48;;;;;;;11.02;8.05;;;4.70;99.90;;;;;;4987616;28;20366;-64
2021/12/06 10:59:22;;;;;;;8.80;7.00;;;4.30;99.90;;;;;;4995539;28;20023;-60
2021/12/06 11:01:50;;;;;;;10.20;7.05;;;5.10;99.90;;;;;;4992219;28;20054;-61
2021/12/06 11:04:18;;;;;;;11.23;7.20;;;4.50;99.90;;;;;;4998013;28;20035;-61
2021/12/06 11:06:48;;;;;;;12.82;7.55;;;4.70;99.90;;;;;;4998197;28;20030;-61
2021/12/06 11:09:24;;;;;;;14.32;8.10;;;6.50;99.90;;;;;;4993702;28;20026;-60
2021/12/06 11:11:57;;;;;;;11.10;6.80;;;5.80;99.90;;;;;;4997512;28;20497;-61
2021/12/06 11:14:30;;;;;;;7.97;6.75;;;5.60;99.90;;;;;;4997997;28;20476;-59
2021/12/06 11:17:03;;;;;;;9.25;6.60;;;6.00;99.90;;;;;;4998774;28;20085;-60
2021/12/06 11:19:31;;;;;;;9.38;7.53;;;6.70;99.90;;;;;;4993972;28;20023;-63
2021/12/06 11:22:00;;;;;;;9.23;7.10;;;6.30;99.90;;;;;;4992417;28;20069;-59
2021/12/06 11:24:28;;;;;;;10.18;7.55;;;5.70;99.90;;;;;;4991468;28;20493;-63
2021/12/06 11:27:11;;;;;;;9.70;6.72;;;5.80;99.90;;;;;;4983067;28;20117;-61
2021/12/06 11:29:39;;;;;;;8.68;6.15;;;5.60;99.90;;;;;;4991493;28;20030;-60
2021/12/06 11:32:17;;;;;;;11.15;6.40;;;6.20;99.90;;;;;;4987646;28;20390;-62
2021/12/06 11:34:47;;;;;;;11.82;7.93;;;5.40;99.90;;;;;;4990843;28;20073;-61
2021/12/06 11:37:17;;;;;;;9.38;6.43;;;5.30;99.90;;;;;;4991657;28;20026;-59
2021/12/06 11:39:47;;;;;;;8.25;6.50;;;5.90;99.90;;;;;;4990490;28;20489;-61
2021/12/06 11:42:13;;;;;;;9.40;5.93;;;5.60;99.90;;;;;;4990243;28;20030;-60
2021/12/06 11:44:42;;;;;;;11.38;6.40;;;6.20;99.90;;;;;;4983023;28;20023;-61
2021/12/06 11:47:16;;;;;;;6.47;5.45;;;6.40;99.90;;;;;;4989448;28;20034;-59
2021/12/06 11:49:54;;;;;;;6.97;5.22;;;5.20;99.90;;;;;;4991196;28;20033;-61
2021/12/06 11:52:25;;;;;;;5.72;5.13;;;;;;;;;;4991424;28;20480;-60
2021/12/06 11:54:54;;;;;;;8.05;5.65;;;6.30;99.90;;;;;;4986371;28;20146;-62
2021/12/06 11:57:27;;;;;;;11.77;5.90;;;5.80;99.90;;;;;;4987246;28;20743;-62
2021/12/06 12:00:20;;;;;;;9.02;5.93;;;7.80;99.90;;;;;;4991258;28;20542;-63
2021/12/06 12:02:45;;;;;;;8.73;6.18;;;7.40;99.90;;;;;;4990873;28;20037;-61
2021/12/06 12:05:37;;;;;;;8.30;4.53;;;7.50;99.90;;;;;;4996157;28;20018;-62
2021/12/06 12:08:13;;;;;;;4.60;4.10;;;6.60;99.90;;;;;;4999627;28;20023;-60
2021/12/06 12:10:47;;;;;;;6.18;4.32;;;8.20;99.90;;;;;;5007798;23;20057;-68
2021/12/06 12:13:29;;;;;;;9.95;4.18;;;8.60;99.90;;;;;;5015735;28;20030;-69
2021/12/06 12:16:06;;;;;;;5.40;4.13;;;8.40;99.90;;;;;;4999614;28;20538;-67
2021/12/06 12:18:34;;;;;;;7.90;4.32;;;7.80;99.90;;;;;;4996463;28;20069;-69
2021/12/06 12:21:00;;;;;;;6.07;3.80;;;7.30;99.90;;;;;;5014005;28;20029;-68
2021/12/06 12:23:32;;;;;;;5.20;4.18;;;5.80;99.90;;;;;;5015092;28;20680;-69
2021/12/06 12:26:08;;;;;;;4.40;4.00;;;5.80;99.90;;;;;;5013205;28;20030;-68
2021/12/06 12:28:48;;;;;;;4.28;3.92;;;;;;;;;;5014689;28;20034;-68
2021/12/06 12:31:15;;;;;;;5.07;4.50;;;5.50;99.90;;;;;;5014406;28;20026;-68
2021/12/06 12:33:41;;;;;;;5.18;4.65;;;5.90;99.90;;;;;;5010641;28;20030;-68
2021/12/06 12:36:14;;;;;;;6.13;4.22;;;6.10;99.90;;;;;;5013943;28;20042;-68
2021/12/06 12:38:43;;;;;;;6.30;3.88;;;7.10;99.90;;;;;;5013684;28;20026;-68
2021/12/06 12:41:12;;;;;;;7.18;3.70;;;6.50;99.90;;;;;;5014147;28;20040;-68
2021/12/06 12:43:42;;;;;;;7.93;3.92;;;6.50;99.90;;;;;;5014955;28;20033;-68
2021/12/06 12:46:19;;;;;;;4.82;4.03;;;6.90;99.90;;;;;;5012011;28;20022;-68
2021/12/06 12:48:57;;;;;;;4.40;3.40;;;7.80;99.90;;;;;;5013094;28;20033;-68
2021/12/06 12:51:25;;;;;;;2.88;2.67;;;10.10;99.90;;;;;;5013344;28;20018;-67
2021/12/06 12:54:15;;;;;;;4.20;2.88;;;10.30;99.90;;;;;;5014121;28;20029;-68
2021/12/06 12:56:50;;;;;;;3.55;2.80;;;10.90;99.90;;;;;;5011441;28;20026;-68
2021/12/06 12:59:19;;;;;;;4.93;2.33;;;12.00;99.90;;;;;;4994842;28;20476;-68
2021/12/06 13:02:04;;;;;;;4.78;2.60;;;12.60;99.90;;;;;;4997900;28;20100;-69
2021/12/06 13:04:59;;;;;;;3.95;3.55;;;14.00;99.90;;;;;;5012652;28;20084;-70
2021/12/06 13:07:55;;;;;;;6.60;2.70;;;13.60;99.50;;;;;;5014477;28;20077;-69
2021/12/06 13:10:23;;;;;;;3.30;2.63;;;13.00;99.70;;;;;;5007984;28;20022;-67